createdAt,value
2022-09-12T00:02:10.945Z,19.51
2022-09-12T00:04:38.067Z,19.47
2022-09-12T00:07:05.170Z,19.49
2022-09-12T00:09:32.608Z,19.34
2022-09-12T00:11:59.976Z,19.42
2022-09-12T00:14:27.047Z,19.41
2022-09-12T00:16:59.502Z,19.63
2022-09-12T00:19:27.951Z,19.65
2022-09-12T00:21:55.219Z,19.59
2022-09-12T00:24:23.088Z,19.51
2022-09-12T00:26:50.449Z,19.43
2022-09-12T00:29:20.496Z,19.36
2022-09-12T00:31:48.146Z,19.34
2022-09-12T00:34:15.481Z,19.34
2022-09-12T00:36:42.841Z,19.28
2022-09-12T00:39:14.477Z,19.36
2022-09-12T00:41:41.803Z,19.35
2022-09-12T00:44:24.319Z,19.38
2022-09-12T00:47:02.357Z,19.34
2022-09-12T00:49:38.295Z,19.27
2022-09-12T00:52:13.362Z,19.20
2022-09-12T00:54:52.348Z,19.19
2022-09-12T00:57:23.681Z,19.23
2022-09-12T00:59:53.239Z,19.12
2022-09-12T01:02:21.655Z,19.13
2022-09-12T01:04:50.036Z,19.12
2022-09-12T01:07:17.121Z,19.07
2022-09-12T01:09:46.194Z,19.09
2022-09-12T01:12:15.253Z,18.98
2022-09-12T01:14:42.676Z,18.93
2022-09-12T01:17:13.806Z,18.87
2022-09-12T01:19:46.918Z,18.87
2022-09-12T01:22:50.122Z,18.92
2022-09-12T01:26:07.554Z,18.92
2022-09-12T01:29:02.431Z,18.91
2022-09-12T01:31:51.578Z,18.93
2022-09-12T01:34:28.357Z,18.90
2022-09-12T01:37:19.996Z,18.84
2022-09-12T01:40:12.121Z,18.81
2022-09-12T01:43:04.345Z,18.87
2022-09-12T01:45:47.329Z,18.82
2022-09-12T01:48:23.491Z,18.88
2022-09-12T01:50:57.397Z,18.80
2022-09-12T01:53:29.906Z,18.80
2022-09-12T01:56:22.281Z,18.68
2022-09-12T01:58:59.776Z,18.62
2022-09-12T02:01:29.866Z,18.69
2022-09-12T02:04:41.336Z,18.57
2022-09-12T02:07:18.532Z,18.56
2022-09-12T02:09:50.975Z,18.52
2022-09-12T02:12:25.093Z,18.50
2022-09-12T02:14:58.517Z,18.53
2022-09-12T02:17:27.308Z,18.57
2022-09-12T02:20:09.166Z,18.62
2022-09-12T02:22:38.938Z,18.67
2022-09-12T02:25:09.216Z,18.55
2022-09-12T02:27:46.931Z,18.58
2022-09-12T02:30:16.644Z,18.64
2022-09-12T02:32:46.864Z,18.43
2022-09-12T02:35:23.319Z,18.63
2022-09-12T02:37:56.641Z,18.68
2022-09-12T02:40:24.314Z,18.62
2022-09-12T02:42:52.322Z,18.57
2022-09-12T02:45:19.734Z,18.59
2022-09-12T02:47:56.390Z,18.59
2022-09-12T02:50:24.317Z,18.61
2022-09-12T02:52:53.902Z,18.58
2022-09-12T02:55:21.513Z,18.54
2022-09-12T02:57:48.880Z,18.63
2022-09-12T03:00:16.297Z,18.54
2022-09-12T03:02:58.702Z,18.57
2022-09-12T03:05:40.423Z,18.56
2022-09-12T03:08:21.310Z,18.50
2022-09-12T03:10:51.988Z,18.39
2022-09-12T03:13:25.311Z,18.38
2022-09-12T03:16:23.543Z,18.36
2022-09-12T03:19:20.043Z,18.36
2022-09-12T03:22:20.240Z,18.27
2022-09-12T03:25:14.376Z,18.25
2022-09-12T03:27:53.230Z,18.28
2022-09-12T03:30:20.501Z,18.23
2022-09-12T03:32:53.263Z,18.25
2022-09-12T03:35:23.848Z,18.18
2022-09-12T03:37:53.011Z,18.20
2022-09-12T03:40:20.791Z,18.18
2022-09-12T03:42:48.110Z,18.15
2022-09-12T03:45:16.760Z,18.06
2022-09-12T03:47:44.044Z,18.13
2022-09-12T03:50:11.290Z,18.05
2022-09-12T03:52:38.687Z,18.06
2022-09-12T03:55:06.547Z,18.03
2022-09-12T03:57:34.218Z,17.95
2022-09-12T04:00:02.293Z,17.90
2022-09-12T04:02:40.150Z,17.87
2022-09-12T04:05:08.143Z,17.76
2022-09-12T04:07:35.245Z,17.76
2022-09-12T04:10:02.727Z,17.78
2022-09-12T04:12:30.572Z,17.76
2022-09-12T04:14:57.581Z,17.77
2022-09-12T04:17:25.048Z,17.79
2022-09-12T04:19:52.386Z,17.71
2022-09-12T04:22:19.455Z,17.68
2022-09-12T04:24:47.110Z,17.71
2022-09-12T04:27:14.256Z,17.67
2022-09-12T04:29:41.559Z,17.66
2022-09-12T04:32:08.854Z,17.68
2022-09-12T04:34:36.220Z,17.70
2022-09-12T04:37:03.725Z,17.62
2022-09-12T04:39:31.182Z,17.63
2022-09-12T04:41:58.505Z,17.59
2022-09-12T04:44:25.944Z,17.68
2022-09-12T04:46:53.068Z,17.69
2022-09-12T04:49:20.319Z,17.72
2022-09-12T04:51:47.657Z,17.73
2022-09-12T04:54:19.555Z,17.72
2022-09-12T04:56:49.668Z,17.68
2022-09-12T04:59:22.157Z,17.73
2022-09-12T05:01:49.837Z,17.88
2022-09-12T05:04:21.813Z,17.83
2022-09-12T05:06:49.093Z,17.79
2022-09-12T05:09:16.622Z,17.81
2022-09-12T05:12:05.046Z,17.83
2022-09-12T05:14:47.140Z,17.98
2022-09-12T05:17:14.531Z,17.85
2022-09-12T05:19:41.998Z,18.00
2022-09-12T05:22:09.866Z,18.04
2022-09-12T05:24:53.986Z,18.03
2022-09-12T05:27:21.412Z,17.94
2022-09-12T05:29:48.530Z,18.05
2022-09-12T05:32:15.896Z,17.92
2022-09-12T05:34:43.041Z,17.93
2022-09-12T05:37:10.556Z,17.98
2022-09-12T05:39:37.980Z,17.89
2022-09-12T05:42:06.222Z,18.07
2022-09-12T05:44:34.728Z,18.15
2022-09-12T05:47:01.981Z,18.15
2022-09-12T05:49:30.073Z,18.19
2022-09-12T05:51:57.395Z,18.23
2022-09-12T05:54:28.327Z,18.26
2022-09-12T05:56:58.394Z,18.30
2022-09-12T05:59:25.690Z,18.41
2022-09-12T06:01:52.871Z,18.43
2022-09-12T06:04:20.639Z,18.45
2022-09-12T06:06:48.944Z,18.48
2022-09-12T06:09:17.135Z,18.58
2022-09-12T06:11:45.366Z,18.50
2022-09-12T06:14:15.289Z,18.52
2022-09-12T06:16:42.995Z,18.58
2022-09-12T06:19:19.511Z,18.59
2022-09-12T06:21:49.864Z,18.73
2022-09-12T06:24:19.807Z,18.78
2022-09-12T06:26:48.305Z,18.87
2022-09-12T06:29:16.934Z,18.94
2022-09-12T06:31:44.848Z,18.92
2022-09-12T06:34:16.086Z,18.98
2022-09-12T06:36:47.009Z,18.99
2022-09-12T06:39:18.459Z,19.01
2022-09-12T06:41:48.157Z,18.95
2022-09-12T06:44:22.288Z,18.98
2022-09-12T06:46:50.479Z,19.19
2022-09-12T06:49:18.110Z,19.24
2022-09-12T06:51:45.311Z,19.25
2022-09-12T06:54:17.442Z,19.30
2022-09-12T06:56:45.425Z,19.42
2022-09-12T06:59:12.885Z,19.50
2022-09-12T07:01:42.056Z,19.57
2022-09-12T07:04:10.054Z,19.67
2022-09-12T07:06:40.873Z,19.88
2022-09-12T07:09:11.107Z,19.84
2022-09-12T07:11:40.267Z,19.97
2022-09-12T07:14:09.303Z,19.99
2022-09-12T07:16:37.040Z,20.06
2022-09-12T07:19:05.867Z,20.19
2022-09-12T07:21:33.201Z,20.31
2022-09-12T07:24:00.572Z,20.23
2022-09-12T07:26:29.310Z,20.42
2022-09-12T07:29:18.615Z,20.39
2022-09-12T07:31:47.060Z,20.46
2022-09-12T07:34:14.645Z,20.53
2022-09-12T07:36:43.248Z,20.63
2022-09-12T07:39:11.485Z,20.73
2022-09-12T07:41:38.946Z,20.77
2022-09-12T07:44:09.078Z,20.78
2022-09-12T07:46:36.343Z,20.90
2022-09-12T07:49:03.858Z,21.03
2022-09-12T07:51:32.093Z,20.98
2022-09-12T07:54:00.421Z,21.03
2022-09-12T07:56:30.665Z,20.98
2022-09-12T07:58:59.691Z,21.13
2022-09-12T08:01:27.730Z,21.25
2022-09-12T08:04:00.103Z,21.33
2022-09-12T08:06:30.394Z,21.46
2022-09-12T08:08:59.367Z,21.45
2022-09-12T08:11:28.851Z,21.54
2022-09-12T08:13:57.721Z,21.50
2022-09-12T08:16:31.351Z,21.45
2022-09-12T08:19:01.456Z,21.57
2022-09-12T08:21:31.570Z,21.60
2022-09-12T08:24:04.610Z,21.73
2022-09-12T08:26:33.255Z,21.86
2022-09-12T08:29:01.116Z,21.82
2022-09-12T08:31:30.836Z,21.84
2022-09-12T08:34:01.195Z,21.84
2022-09-12T08:36:29.745Z,21.94
2022-09-12T08:39:03.136Z,22.03
2022-09-12T08:41:42.393Z,22.14
2022-09-12T08:44:32.169Z,22.00
2022-09-12T08:47:02.818Z,21.97
2022-09-12T08:49:35.535Z,21.81
2022-09-12T08:52:17.591Z,21.76
2022-09-12T08:54:48.555Z,21.85
2022-09-12T08:57:15.831Z,21.88
2022-09-12T08:59:48.623Z,21.94
2022-09-12T09:02:31.384Z,22.06
2022-09-12T09:05:13.814Z,22.11
2022-09-12T09:07:50.663Z,22.24
2022-09-12T09:10:53.966Z,22.15
2022-09-12T09:13:45.988Z,22.27
2022-09-12T09:16:22.195Z,22.35
2022-09-12T09:18:50.915Z,22.39
2022-09-12T09:21:41.583Z,22.35
2022-09-12T09:24:16.971Z,22.32
2022-09-12T09:27:00.851Z,22.28
2022-09-12T09:29:41.322Z,22.23
2022-09-12T09:32:19.318Z,22.00
2022-09-12T09:34:47.006Z,22.20
2022-09-12T09:37:29.466Z,22.44
2022-09-12T09:39:59.757Z,22.69
2022-09-12T09:42:57.918Z,22.83
2022-09-12T09:45:29.264Z,22.90
2022-09-12T09:48:15.839Z,22.90
2022-09-12T09:50:49.428Z,23.00
2022-09-12T09:53:38.693Z,23.20
2022-09-12T09:56:12.040Z,23.26
2022-09-12T09:58:40.567Z,23.50
2022-09-12T10:01:18.187Z,23.56
2022-09-12T10:04:04.041Z,23.70
2022-09-12T10:06:38.113Z,23.59
2022-09-12T10:09:28.048Z,23.72
2022-09-12T10:11:57.230Z,23.62
2022-09-12T10:14:31.651Z,23.66
2022-09-12T10:16:59.727Z,23.71
2022-09-12T10:19:40.000Z,23.67
2022-09-12T10:22:07.719Z,23.78
2022-09-12T10:24:41.399Z,23.86
2022-09-12T10:27:15.972Z,24.03
2022-09-12T10:29:54.421Z,24.06
2022-09-12T10:32:36.249Z,23.73
2022-09-12T10:35:09.227Z,23.47
2022-09-12T10:37:40.197Z,23.55
2022-09-12T10:40:22.603Z,23.85
2022-09-12T10:42:55.517Z,24.06
2022-09-12T10:45:32.886Z,24.18
2022-09-12T10:48:20.217Z,23.80
2022-09-12T10:50:47.483Z,23.49
2022-09-12T10:53:17.078Z,23.47
2022-09-12T10:55:59.337Z,23.29
2022-09-12T10:58:48.414Z,23.66
2022-09-12T11:01:21.484Z,23.79
2022-09-12T11:04:07.014Z,23.61
2022-09-12T11:07:01.113Z,23.36
2022-09-12T11:09:48.213Z,23.44
2022-09-12T11:12:47.505Z,23.54
2022-09-12T11:15:52.301Z,23.69
2022-09-12T11:18:45.370Z,23.64
2022-09-12T11:21:21.865Z,23.55
2022-09-12T11:24:25.911Z,23.48
2022-09-12T11:27:22.961Z,23.42
2022-09-12T11:29:58.189Z,23.30
2022-09-12T11:33:01.540Z,23.08
2022-09-12T11:35:30.638Z,23.04
2022-09-12T11:38:33.797Z,22.89
2022-09-12T11:41:11.028Z,22.83
2022-09-12T11:44:03.895Z,22.88
2022-09-12T11:46:38.164Z,23.09
2022-09-12T11:49:14.188Z,23.41
2022-09-12T11:51:45.547Z,23.46
2022-09-12T11:54:34.479Z,23.28
2022-09-12T11:57:12.484Z,23.02
2022-09-12T11:59:54.584Z,23.08
2022-09-12T12:02:40.566Z,23.17
2022-09-12T12:05:22.735Z,23.53
2022-09-12T12:07:59.959Z,23.78
2022-09-12T12:10:48.860Z,23.82
2022-09-12T12:13:26.990Z,23.76
2022-09-12T12:16:04.915Z,23.53
2022-09-12T12:18:35.796Z,23.68
2022-09-12T12:21:34.166Z,23.67
2022-09-12T12:24:07.730Z,23.83
2022-09-12T12:26:41.047Z,24.09
2022-09-12T12:29:31.528Z,24.06
2022-09-12T12:31:58.946Z,24.03
2022-09-12T12:34:36.083Z,23.77
2022-09-12T12:37:21.409Z,23.67
2022-09-12T12:40:04.973Z,23.59
2022-09-12T12:42:35.017Z,23.81
2022-09-12T12:45:04.644Z,23.90
2022-09-12T12:47:40.756Z,24.01
2022-09-12T12:50:21.116Z,24.01
2022-09-12T12:53:07.362Z,24.28
2022-09-12T12:55:47.675Z,24.38
2022-09-12T12:58:30.507Z,24.42
2022-09-12T13:01:10.406Z,24.11
2022-09-12T13:03:43.966Z,23.86
2022-09-12T13:06:42.699Z,23.70
2022-09-12T13:09:39.882Z,23.66
2022-09-12T13:12:13.297Z,23.73
2022-09-12T13:14:43.917Z,23.80
2022-09-12T13:17:41.634Z,23.90
2022-09-12T13:20:30.917Z,24.00
2022-09-12T13:22:58.479Z,24.05
2022-09-12T13:25:33.743Z,24.08
2022-09-12T13:28:20.698Z,24.22
2022-09-12T13:31:22.915Z,24.31
2022-09-12T13:33:56.273Z,24.43
2022-09-12T13:36:30.643Z,24.45
2022-09-12T13:39:14.267Z,24.33
2022-09-12T13:42:13.820Z,24.46
2022-09-12T13:44:51.899Z,24.48
2022-09-12T13:47:47.106Z,24.56
2022-09-12T13:50:41.922Z,24.67
2022-09-12T13:53:20.092Z,24.53
2022-09-12T13:55:52.158Z,24.42
2022-09-12T13:58:28.548Z,24.42
2022-09-12T14:01:06.914Z,24.34
2022-09-12T14:04:11.845Z,24.22
2022-09-12T14:06:49.787Z,24.19
2022-09-12T14:09:25.233Z,24.07
2022-09-12T14:11:53.959Z,23.95
2022-09-12T14:14:51.917Z,24.01
2022-09-12T14:17:29.522Z,23.85
2022-09-12T14:20:00.256Z,23.78
2022-09-12T14:22:30.187Z,23.76
2022-09-12T14:24:59.690Z,23.60
2022-09-12T14:27:54.785Z,23.82
2022-09-12T14:30:30.948Z,23.72
2022-09-12T14:33:22.093Z,23.71
2022-09-12T14:35:52.317Z,23.69
2022-09-12T14:38:35.309Z,23.61
2022-09-12T14:41:08.990Z,23.56
2022-09-12T14:43:40.926Z,23.63
2022-09-12T14:46:33.188Z,23.63
2022-09-12T14:49:14.036Z,23.56
2022-09-12T14:51:55.257Z,23.56
2022-09-12T14:54:28.667Z,23.58
2022-09-12T14:57:03.234Z,23.46
2022-09-12T14:59:41.216Z,23.43
2022-09-12T15:02:22.604Z,23.43
2022-09-12T15:05:11.021Z,23.36
2022-09-12T15:07:41.727Z,23.42
2022-09-12T15:10:18.238Z,23.38
2022-09-12T15:12:46.828Z,23.42
2022-09-12T15:15:21.295Z,23.37
2022-09-12T15:17:49.697Z,23.30
2022-09-12T15:20:21.962Z,23.27
2022-09-12T15:22:50.510Z,23.12
2022-09-12T15:25:18.266Z,23.08
2022-09-12T15:27:47.105Z,23.12
2022-09-12T15:30:14.638Z,23.05
2022-09-12T15:32:44.481Z,23.10
2022-09-12T15:35:26.053Z,23.23
2022-09-12T15:37:53.520Z,23.13
2022-09-12T15:40:21.962Z,23.18
2022-09-12T15:42:49.727Z,23.13
2022-09-12T15:45:23.865Z,23.12
2022-09-12T15:47:54.959Z,23.05
2022-09-12T15:50:28.660Z,22.93
2022-09-12T15:52:57.947Z,22.82
2022-09-12T15:55:29.409Z,22.69
2022-09-12T15:57:57.256Z,22.69
2022-09-12T16:00:24.655Z,22.73
2022-09-12T16:02:54.117Z,22.60
2022-09-12T16:05:25.441Z,22.61
2022-09-12T16:07:55.023Z,22.63
2022-09-12T16:10:25.907Z,22.53
2022-09-12T16:12:54.870Z,22.46
2022-09-12T16:15:24.716Z,22.36
2022-09-12T16:17:52.678Z,22.40
2022-09-12T16:20:21.593Z,22.37
2022-09-12T16:22:48.930Z,22.26
2022-09-12T16:25:17.496Z,22.18
2022-09-12T16:27:45.170Z,22.13
2022-09-12T16:30:13.299Z,22.08
2022-09-12T16:32:41.291Z,21.97
2022-09-12T16:35:09.860Z,21.95
2022-09-12T16:37:37.276Z,21.95
2022-09-12T16:40:05.634Z,21.90
2022-09-12T16:42:37.433Z,21.82
2022-09-12T16:45:09.661Z,21.76
2022-09-12T16:47:37.052Z,21.79
2022-09-12T16:50:04.735Z,21.69
2022-09-12T16:52:31.937Z,21.62
2022-09-12T16:54:59.021Z,21.57
2022-09-12T16:57:26.248Z,21.50
2022-09-12T16:59:53.722Z,21.47
2022-09-12T17:02:21.086Z,21.45
2022-09-12T17:04:48.911Z,21.37
2022-09-12T17:07:16.478Z,21.37
2022-09-12T17:09:47.425Z,21.29
2022-09-12T17:12:15.126Z,21.20
2022-09-12T17:14:42.334Z,21.22
2022-09-12T17:17:09.622Z,21.11
2022-09-12T17:19:37.029Z,21.08
2022-09-12T17:22:04.917Z,21.06
2022-09-12T17:24:33.077Z,21.03
2022-09-12T17:27:00.288Z,20.96
2022-09-12T17:29:27.619Z,20.89
2022-09-12T17:31:55.774Z,20.85
2022-09-12T17:34:23.509Z,20.86
2022-09-12T17:36:50.970Z,20.73
2022-09-12T17:39:18.203Z,20.75
2022-09-12T17:41:46.266Z,20.73
2022-09-12T17:44:15.343Z,20.73
2022-09-12T17:46:43.825Z,20.62
2022-09-12T17:49:19.280Z,20.64
2022-09-12T17:51:52.045Z,20.50
2022-09-12T17:54:20.955Z,20.41
2022-09-12T17:56:51.789Z,20.40
2022-09-12T17:59:25.149Z,20.33
2022-09-12T18:02:11.339Z,20.33
2022-09-12T18:04:40.721Z,20.25
2022-09-12T18:07:08.802Z,20.30
2022-09-12T18:09:39.252Z,20.26
2022-09-12T18:12:07.574Z,20.23
2022-09-12T18:14:35.247Z,20.25
2022-09-12T18:17:02.510Z,20.22
2022-09-12T18:19:29.955Z,20.27
2022-09-12T18:22:00.747Z,20.16
2022-09-12T18:27:14.412Z,20.14
2022-09-12T18:29:41.846Z,20.12
2022-09-12T18:32:18.625Z,20.12
2022-09-12T18:34:45.910Z,20.11
2022-09-12T18:37:13.577Z,20.10
2022-09-12T18:39:41.968Z,20.20
2022-09-12T18:42:09.256Z,20.22
2022-09-12T18:44:36.332Z,20.30
2022-09-12T18:47:04.402Z,20.33
2022-09-12T18:49:31.674Z,20.31
2022-09-12T18:51:58.640Z,20.29
2022-09-12T18:54:29.971Z,20.28
2022-09-12T18:56:59.349Z,20.40
2022-09-12T18:59:29.709Z,20.38
2022-09-12T19:01:57.063Z,20.45
2022-09-12T19:04:35.483Z,20.44
2022-09-12T19:07:07.688Z,20.45
2022-09-12T19:09:34.812Z,20.45
2022-09-12T19:12:02.142Z,20.44
2022-09-12T19:14:29.379Z,20.46
2022-09-12T19:16:57.682Z,20.43
2022-09-12T19:19:25.236Z,20.41
2022-09-12T19:21:55.789Z,20.33
2022-09-12T19:24:28.088Z,20.40
2022-09-12T19:26:56.876Z,20.40
2022-09-12T19:29:24.137Z,20.41
2022-09-12T19:31:51.449Z,20.46
2022-09-12T19:34:21.042Z,20.38
2022-09-12T19:36:48.484Z,20.42
2022-09-12T19:39:17.775Z,20.38
2022-09-12T19:41:45.705Z,20.34
2022-09-12T19:44:19.357Z,20.28
2022-09-12T19:46:57.648Z,20.34
2022-09-12T19:49:28.078Z,20.34
2022-09-12T19:52:00.595Z,20.32
2022-09-12T19:54:27.700Z,20.31
2022-09-12T19:56:55.958Z,20.33
2022-09-12T19:59:24.036Z,20.32
2022-09-12T20:01:51.303Z,20.27
2022-09-12T20:04:18.621Z,20.22
2022-09-12T20:06:45.799Z,20.21
2022-09-12T20:09:24.995Z,20.20
2022-09-12T20:11:55.485Z,20.06
2022-09-12T20:14:26.630Z,20.07
2022-09-12T20:16:55.540Z,20.04
2022-09-12T20:19:23.524Z,19.97
2022-09-12T20:21:53.310Z,19.99
2022-09-12T20:24:20.655Z,19.93
2022-09-12T20:26:47.837Z,19.86
2022-09-12T20:29:14.950Z,19.86
2022-09-12T20:31:42.672Z,19.83
2022-09-12T20:34:20.508Z,19.84
2022-09-12T20:36:49.022Z,19.84
2022-09-12T20:39:19.968Z,19.81
2022-09-12T20:41:47.974Z,19.75
2022-09-12T20:44:18.952Z,19.80
2022-09-12T20:46:46.877Z,19.76
2022-09-12T20:49:14.057Z,19.73
2022-09-12T20:51:41.519Z,19.76
2022-09-12T20:54:08.742Z,19.69
2022-09-12T20:56:48.639Z,19.68
2022-09-12T20:59:17.194Z,19.68
2022-09-12T21:01:46.119Z,19.66
2022-09-12T21:04:15.348Z,19.65
2022-09-12T21:06:42.635Z,19.62
2022-09-12T21:09:09.993Z,19.52
2022-09-12T21:11:40.604Z,19.56
2022-09-12T21:14:08.105Z,19.52
2022-09-12T21:16:38.753Z,19.52
2022-09-12T21:19:07.965Z,19.48
2022-09-12T21:21:38.390Z,19.53
2022-09-12T21:24:09.500Z,19.57
2022-09-12T21:26:38.462Z,19.42
2022-09-12T21:29:06.367Z,19.52
2022-09-12T21:31:49.057Z,19.45
2022-09-12T21:34:16.133Z,19.44
2022-09-12T21:36:43.478Z,19.44
2022-09-12T21:39:10.823Z,19.41
2022-09-12T21:41:37.995Z,19.51
2022-09-12T21:44:05.401Z,19.51
2022-09-12T21:46:32.967Z,19.45
2022-09-12T21:49:01.635Z,19.45
2022-09-12T21:51:29.246Z,19.47
2022-09-12T21:53:57.621Z,19.38
2022-09-12T21:56:24.861Z,19.38
2022-09-12T21:58:52.005Z,19.39
2022-09-12T22:01:19.479Z,19.38
2022-09-12T22:03:46.688Z,19.45
2022-09-12T22:06:14.418Z,19.44
2022-09-12T22:08:41.938Z,19.42
2022-09-12T22:11:11.043Z,19.43
2022-09-12T22:13:43.831Z,19.41
2022-09-12T22:16:15.239Z,19.31
2022-09-12T22:18:42.245Z,19.18
2022-09-12T22:21:13.095Z,19.16
2022-09-12T22:23:59.328Z,19.14
2022-09-12T22:26:29.574Z,19.14
2022-09-12T22:28:57.273Z,19.36
2022-09-12T22:31:24.531Z,19.50
2022-09-12T22:33:54.341Z,19.56
2022-09-12T22:36:30.492Z,19.46
2022-09-12T22:39:00.657Z,19.24
2022-09-12T22:41:32.101Z,19.14
2022-09-12T22:44:00.021Z,19.13
2022-09-12T22:46:27.732Z,18.97
2022-09-12T22:48:55.933Z,18.98
2022-09-12T22:51:23.451Z,18.85
2022-09-12T22:53:51.578Z,18.76
2022-09-12T22:56:19.160Z,18.76
2022-09-12T22:58:46.269Z,18.65
2022-09-12T23:01:15.904Z,18.66
2022-09-12T23:03:44.422Z,18.63
2022-09-12T23:06:12.489Z,18.60
2022-09-12T23:08:46.001Z,18.56
2022-09-12T23:11:16.728Z,18.46
2022-09-12T23:13:46.849Z,18.43
2022-09-12T23:16:25.781Z,18.29
2022-09-12T23:18:53.087Z,18.21
2022-09-12T23:21:22.115Z,18.12
2022-09-12T23:23:49.888Z,18.15
2022-09-12T23:26:28.326Z,17.89
2022-09-12T23:29:02.342Z,18.06
2022-09-12T23:31:32.848Z,18.03
2022-09-12T23:34:06.210Z,17.95
2022-09-12T23:36:34.295Z,17.93
2022-09-12T23:39:02.190Z,17.92
2022-09-12T23:41:30.188Z,17.88
2022-09-12T23:43:57.896Z,17.81
2022-09-12T23:46:25.184Z,17.67
2022-09-12T23:48:56.131Z,17.61
2022-09-12T23:51:24.174Z,17.59
2022-09-12T23:53:54.163Z,17.54
2022-09-12T23:56:22.365Z,17.51
2022-09-12T23:58:49.824Z,17.49
